createdAt,value
2017-06-08T00:00:19.920Z,0
2017-06-08T00:01:19.912Z,0
2017-06-08T00:02:20.524Z,0
2017-06-08T00:03:20.518Z,0
2017-06-08T00:04:19.557Z,0
2017-06-08T00:05:19.892Z,0
2017-06-08T00:06:19.853Z,0
2017-06-08T00:07:20.144Z,0
2017-06-08T00:08:19.825Z,0
2017-06-08T00:09:20.437Z,0
2017-06-08T00:10:20.415Z,0
2017-06-08T00:11:19.772Z,0
2017-06-08T00:12:20.076Z,0
2017-06-08T00:13:20.060Z,0
2017-06-08T00:14:20.045Z,0
2017-06-08T00:15:19.717Z,0
2017-06-08T00:16:20.366Z,0
2017-06-08T00:17:20.000Z,0
2017-06-08T00:18:20.346Z,0
2017-06-08T00:19:19.664Z,0
2017-06-08T00:20:19.647Z,0
2017-06-08T00:21:19.951Z,0
2017-06-08T00:22:19.936Z,0
2017-06-08T00:23:20.238Z,0
2017-06-08T00:24:19.597Z,0
2017-06-08T00:25:19.581Z,0
2017-06-08T00:26:19.880Z,0
2017-06-08T00:27:19.559Z,0
2017-06-08T00:28:19.536Z,0
2017-06-08T00:29:19.523Z,0
2017-06-08T00:30:19.823Z,0
2017-06-08T00:31:19.515Z,0
2017-06-08T00:32:19.502Z,0
2017-06-08T00:33:19.784Z,0
2017-06-08T00:34:19.771Z,0
2017-06-08T00:35:19.756Z,0
2017-06-08T00:36:19.430Z,0
2017-06-08T00:37:19.416Z,0
2017-06-08T00:38:19.082Z,0
2017-06-08T00:39:19.388Z,0
2017-06-08T00:40:19.683Z,0
2017-06-08T00:41:19.989Z,0
2017-06-08T00:42:19.654Z,0
2017-06-08T00:43:19.958Z,0
2017-06-08T00:44:19.316Z,0
2017-06-08T00:45:19.937Z,0
2017-06-08T00:46:19.293Z,0
2017-06-08T00:47:19.597Z,0
2017-06-08T00:48:19.897Z,0
2017-06-08T00:49:19.567Z,0
2017-06-08T00:50:19.862Z,0
2017-06-08T00:51:19.536Z,0
2017-06-08T00:52:19.841Z,0
2017-06-08T00:53:19.509Z,0
2017-06-08T00:54:19.548Z,0
2017-06-08T00:55:19.165Z,0
2017-06-08T00:56:19.471Z,0
2017-06-08T00:57:19.768Z,0
2017-06-08T00:58:19.433Z,0
2017-06-08T00:59:19.419Z,0
2017-06-08T01:00:19.096Z,0
2017-06-08T01:01:19.601Z,0
2017-06-08T01:02:19.389Z,0
2017-06-08T01:03:18.743Z,0
2017-06-08T01:04:19.681Z,0
2017-06-08T01:05:19.341Z,0
2017-06-08T01:06:19.019Z,0
2017-06-08T01:07:19.314Z,0
2017-06-08T01:08:19.302Z,0
2017-06-08T01:09:18.975Z,0
2017-06-08T01:10:19.280Z,0
2017-06-08T01:11:19.573Z,0
2017-06-08T01:12:19.250Z,0
2017-06-08T01:13:19.563Z,0
2017-06-08T01:14:19.220Z,0
2017-06-08T01:15:19.520Z,0
2017-06-08T01:16:18.560Z,0
2017-06-08T01:17:18.899Z,0
2017-06-08T01:18:19.167Z,0
2017-06-08T01:19:19.150Z,0
2017-06-08T01:20:18.825Z,0
2017-06-08T01:21:18.805Z,0
2017-06-08T01:22:19.112Z,0
2017-06-08T01:23:18.783Z,0
2017-06-08T01:24:19.089Z,0
2017-06-08T01:25:19.062Z,0
2017-06-08T01:26:18.744Z,0
2017-06-08T01:27:19.044Z,0
2017-06-08T01:28:18.707Z,0
2017-06-08T01:29:19.009Z,0
2017-06-08T01:30:18.999Z,0
2017-06-08T01:31:18.674Z,0
2017-06-08T01:32:18.357Z,0
2017-06-08T01:33:18.952Z,0
2017-06-08T01:34:18.943Z,0
2017-06-08T01:35:18.934Z,0
2017-06-08T01:36:18.293Z,0
2017-06-08T01:37:18.930Z,0
2017-06-08T01:38:18.884Z,0
2017-06-08T01:39:19.188Z,0
2017-06-08T01:40:19.180Z,0
2017-06-08T01:41:18.530Z,0
2017-06-08T01:42:18.860Z,0
2017-06-08T01:43:19.130Z,0
2017-06-08T01:44:18.804Z,0
2017-06-08T01:45:18.788Z,0
2017-06-08T01:46:18.464Z,0
2017-06-08T01:47:18.769Z,0
2017-06-08T01:48:18.750Z,0
2017-06-08T01:49:19.047Z,0
2017-06-08T01:50:19.036Z,0
2017-06-08T01:51:19.018Z,0
2017-06-08T01:52:18.374Z,0
2017-06-08T01:53:18.362Z,0
2017-06-08T01:54:18.973Z,0
2017-06-08T01:55:18.648Z,0
2017-06-08T01:56:18.012Z,0
2017-06-08T01:57:18.627Z,0
2017-06-08T01:58:18.611Z,0
2017-06-08T01:59:18.596Z,0
2017-06-08T02:00:18.266Z,0
2017-06-08T02:01:18.904Z,0
2017-06-08T02:02:18.863Z,0
2017-06-08T02:03:18.547Z,0
2017-06-08T02:04:18.219Z,0
2017-06-08T02:05:18.525Z,0
2017-06-08T02:06:18.540Z,0
2017-06-08T02:07:18.487Z,0
2017-06-08T02:08:18.176Z,0
2017-06-08T02:09:18.461Z,0
2017-06-08T02:10:18.757Z,0
2017-06-08T02:11:17.803Z,0
2017-06-08T02:12:18.103Z,0
2017-06-08T02:13:18.400Z,0
2017-06-08T02:14:18.700Z,0
2017-06-08T02:15:18.060Z,0
2017-06-08T02:16:18.091Z,0
2017-06-08T02:17:18.049Z,0
2017-06-08T02:18:18.337Z,0
2017-06-08T02:19:18.011Z,0
2017-06-08T02:20:18.307Z,0
2017-06-08T02:21:18.292Z,0
2017-06-08T02:22:18.285Z,0
2017-06-08T02:23:17.953Z,0
2017-06-08T02:24:17.619Z,0
2017-06-08T02:25:17.928Z,0
2017-06-08T02:26:18.227Z,0
2017-06-08T02:27:18.221Z,0
2017-06-08T02:28:18.510Z,0
2017-06-08T02:29:18.189Z,0
2017-06-08T02:30:18.481Z,0
2017-06-08T02:31:17.846Z,0
2017-06-08T02:32:17.830Z,0
2017-06-08T02:33:17.812Z,0
2017-06-08T02:34:18.123Z,0
2017-06-08T02:35:17.475Z,0
2017-06-08T02:36:18.090Z,0
2017-06-08T02:37:18.408Z,4
2017-06-08T02:38:18.064Z,4
2017-06-08T02:39:17.735Z,4
2017-06-08T02:40:17.722Z,0
2017-06-08T02:41:17.703Z,0
2017-06-08T02:42:17.382Z,4
2017-06-08T02:43:17.998Z,4
2017-06-08T02:44:18.295Z,8
2017-06-08T02:45:18.278Z,4
2017-06-08T02:46:17.646Z,8
2017-06-08T02:47:18.258Z,4
2017-06-08T02:48:17.926Z,8
2017-06-08T02:49:17.610Z,8
2017-06-08T02:50:17.586Z,8
2017-06-08T02:51:17.572Z,12
2017-06-08T02:52:17.555Z,8
2017-06-08T02:53:17.544Z,12
2017-06-08T02:54:17.867Z,12
2017-06-08T02:55:17.518Z,12
2017-06-08T02:56:17.836Z,12
2017-06-08T02:57:18.118Z,16
2017-06-08T02:58:18.105Z,12
2017-06-08T02:59:18.090Z,16
2017-06-08T03:00:17.456Z,20
2017-06-08T03:01:17.979Z,20
2017-06-08T03:02:18.054Z,20
2017-06-08T03:03:17.737Z,20
2017-06-08T03:04:18.022Z,20
2017-06-08T03:05:17.733Z,20
2017-06-08T03:06:17.998Z,24
2017-06-08T03:07:17.675Z,28
2017-06-08T03:08:17.976Z,24
2017-06-08T03:09:17.647Z,28
2017-06-08T03:10:17.630Z,24
2017-06-08T03:11:17.932Z,28
2017-06-08T03:12:17.605Z,32
2017-06-08T03:13:17.598Z,32
2017-06-08T03:14:17.584Z,36
2017-06-08T03:15:17.874Z,40
2017-06-08T03:16:17.549Z,40
2017-06-08T03:17:17.225Z,40
2017-06-08T03:18:17.834Z,44
2017-06-08T03:19:16.880Z,48
2017-06-08T03:20:17.498Z,56
2017-06-08T03:21:17.491Z,68
2017-06-08T03:22:17.154Z,80
2017-06-08T03:23:17.147Z,96
2017-06-08T03:24:17.121Z,116
2017-06-08T03:25:17.432Z,128
2017-06-08T03:26:17.775Z,140
2017-06-08T03:27:17.718Z,136
2017-06-08T03:28:17.071Z,128
2017-06-08T03:29:17.065Z,124
2017-06-08T03:30:17.684Z,140
2017-06-08T03:31:17.342Z,156
2017-06-08T03:32:16.786Z,168
2017-06-08T03:33:17.006Z,192
2017-06-08T03:34:17.620Z,200
2017-06-08T03:35:16.990Z,204
2017-06-08T03:36:17.291Z,196
2017-06-08T03:37:17.263Z,196
2017-06-08T03:38:17.564Z,228
2017-06-08T03:39:16.919Z,260
2017-06-08T03:40:16.913Z,276
2017-06-08T03:41:17.213Z,260
2017-06-08T03:42:17.241Z,268
2017-06-08T03:43:17.178Z,288
2017-06-08T03:44:16.850Z,308
2017-06-08T03:45:17.477Z,312
2017-06-08T03:46:16.830Z,320
2017-06-08T03:47:16.499Z,320
2017-06-08T03:48:17.123Z,336
2017-06-08T03:49:17.421Z,356
2017-06-08T03:50:16.458Z,352
2017-06-08T03:51:17.392Z,348
2017-06-08T03:52:16.484Z,352
2017-06-08T03:53:17.049Z,336
2017-06-08T03:54:17.350Z,344
2017-06-08T03:55:17.340Z,340
2017-06-08T03:56:17.011Z,332
2017-06-08T03:57:16.991Z,320
2017-06-08T03:58:17.296Z,340
2017-06-08T03:59:16.689Z,340
2017-06-08T04:00:16.953Z,340
2017-06-08T04:01:17.261Z,348
2017-06-08T04:02:16.660Z,368
2017-06-08T04:03:17.224Z,376
2017-06-08T04:04:16.582Z,372
2017-06-08T04:05:16.882Z,380
2017-06-08T04:06:17.218Z,404
2017-06-08T04:07:16.550Z,416
2017-06-08T04:08:16.531Z,416
2017-06-08T04:09:16.826Z,412
2017-06-08T04:10:16.505Z,424
2017-06-08T04:11:17.124Z,452
2017-06-08T04:12:17.108Z,488
2017-06-08T04:13:16.465Z,516
2017-06-08T04:14:16.810Z,560
2017-06-08T04:15:16.753Z,604
2017-06-08T04:16:16.116Z,648
2017-06-08T04:17:17.091Z,692
2017-06-08T04:18:17.038Z,744
2017-06-08T04:19:16.387Z,788
2017-06-08T04:20:16.685Z,820
2017-06-08T04:21:16.986Z,852
2017-06-08T04:22:16.660Z,892
2017-06-08T04:23:16.330Z,908
2017-06-08T04:24:16.949Z,900
2017-06-08T04:25:16.938Z,856
2017-06-08T04:26:16.292Z,828
2017-06-08T04:27:16.593Z,816
2017-06-08T04:28:16.585Z,812
2017-06-08T04:29:16.253Z,800
2017-06-08T04:30:16.555Z,828
2017-06-08T04:31:16.541Z,896
2017-06-08T04:32:16.526Z,968
2017-06-08T04:33:16.826Z,980
2017-06-08T04:34:16.497Z,932
2017-06-08T04:35:16.495Z,944
2017-06-08T04:36:16.788Z,1008
2017-06-08T04:37:16.147Z,1080
2017-06-08T04:38:16.448Z,1120
2017-06-08T04:39:16.115Z,1156
2017-06-08T04:40:16.106Z,1280
2017-06-08T04:41:16.719Z,1244
2017-06-08T04:42:16.108Z,1100
2017-06-08T04:43:16.380Z,1092
2017-06-08T04:44:16.688Z,1144
2017-06-08T04:45:16.356Z,1192
2017-06-08T04:46:16.029Z,1212
2017-06-08T04:47:16.018Z,1236
2017-06-08T04:48:16.327Z,1220
2017-06-08T04:49:16.308Z,1208
2017-06-08T04:50:16.608Z,1224
2017-06-08T04:51:15.964Z,1224
2017-06-08T04:52:15.944Z,1232
2017-06-08T04:53:16.620Z,1220
2017-06-08T04:54:16.238Z,1200
2017-06-08T04:55:15.610Z,1132
2017-06-08T04:56:16.552Z,1012
2017-06-08T04:57:16.199Z,1008
2017-06-08T04:58:16.499Z,1064
2017-06-08T04:59:16.170Z,1160
2017-06-08T05:00:16.491Z,1292
2017-06-08T05:01:16.756Z,1444
2017-06-08T05:02:15.835Z,1536
2017-06-08T05:03:15.879Z,1520
2017-06-08T05:04:16.441Z,1472
2017-06-08T05:05:15.810Z,1444
2017-06-08T05:06:16.391Z,1456
2017-06-08T05:07:16.103Z,1440
2017-06-08T05:08:15.744Z,1540
2017-06-08T05:09:16.076Z,1792
2017-06-08T05:10:15.713Z,1952
2017-06-08T05:11:15.802Z,2028
2017-06-08T05:12:15.686Z,2104
2017-06-08T05:13:15.998Z,2160
2017-06-08T05:14:16.293Z,2212
2017-06-08T05:15:15.964Z,2184
2017-06-08T05:16:15.633Z,2168
2017-06-08T05:17:16.288Z,2164
2017-06-08T05:18:16.242Z,2180
2017-06-08T05:19:16.226Z,2132
2017-06-08T05:20:15.896Z,2128
2017-06-08T05:21:15.884Z,2136
2017-06-08T05:22:16.190Z,2068
2017-06-08T05:23:15.858Z,2004
2017-06-08T05:24:15.538Z,1932
2017-06-08T05:25:16.151Z,1912
2017-06-08T05:26:15.825Z,1988
2017-06-08T05:27:15.494Z,2032
2017-06-08T05:28:15.510Z,2000
2017-06-08T05:29:15.463Z,1952
2017-06-08T05:30:16.080Z,1968
2017-06-08T05:31:15.537Z,1996
2017-06-08T05:32:15.428Z,1996
2017-06-08T05:33:15.732Z,2040
2017-06-08T05:34:15.715Z,2132
2017-06-08T05:35:16.027Z,2176
2017-06-08T05:36:15.059Z,2144
2017-06-08T05:37:15.682Z,2144
2017-06-08T05:38:15.347Z,2220
2017-06-08T05:39:15.340Z,2416
2017-06-08T05:40:15.953Z,2704
2017-06-08T05:41:15.313Z,2956
2017-06-08T05:42:15.940Z,3132
2017-06-08T05:43:15.616Z,3244
2017-06-08T05:44:14.962Z,3348
2017-06-08T05:45:15.576Z,3492
2017-06-08T05:46:15.739Z,3672
2017-06-08T05:47:15.552Z,3724
2017-06-08T05:48:15.538Z,3660
2017-06-08T05:49:15.212Z,3968
2017-06-08T05:50:15.520Z,4456
2017-06-08T05:51:15.495Z,4956
2017-06-08T05:52:14.859Z,5404
2017-06-08T05:53:15.837Z,5564
2017-06-08T05:54:15.841Z,5356
2017-06-08T05:55:15.785Z,4932
2017-06-08T05:56:15.756Z,4596
2017-06-08T05:57:15.429Z,4336
2017-06-08T05:58:15.412Z,4152
2017-06-08T05:59:15.096Z,4208
2017-06-08T06:00:15.703Z,4436
2017-06-08T06:01:15.376Z,4612
2017-06-08T06:02:15.362Z,4776
2017-06-08T06:03:15.033Z,5028
2017-06-08T06:04:15.654Z,5176
2017-06-08T06:05:15.636Z,4720
2017-06-08T06:06:15.310Z,4344
2017-06-08T06:07:14.985Z,4196
2017-06-08T06:08:15.286Z,4012
2017-06-08T06:09:15.278Z,4000
2017-06-08T06:10:15.575Z,3616
2017-06-08T06:11:15.565Z,3208
2017-06-08T06:12:14.605Z,3304
2017-06-08T06:13:14.914Z,3636
2017-06-08T06:14:15.529Z,3440
2017-06-08T06:15:15.213Z,3076
2017-06-08T06:16:15.189Z,2856
2017-06-08T06:17:15.198Z,2864
2017-06-08T06:18:15.486Z,2920
2017-06-08T06:19:15.153Z,2916
2017-06-08T06:20:14.882Z,3016
2017-06-08T06:21:15.141Z,3080
2017-06-08T06:22:15.124Z,2928
2017-06-08T06:23:14.793Z,2616
2017-06-08T06:24:14.813Z,2412
2017-06-08T06:25:15.097Z,2484
2017-06-08T06:26:15.484Z,2612
2017-06-08T06:27:15.060Z,2516
2017-06-08T06:28:14.732Z,2624
2017-06-08T06:29:14.721Z,3140
2017-06-08T06:30:15.341Z,3816
2017-06-08T06:31:14.709Z,4468
2017-06-08T06:32:14.994Z,4828
2017-06-08T06:33:15.344Z,4840
2017-06-08T06:34:15.290Z,4864
2017-06-08T06:35:14.647Z,5124
2017-06-08T06:36:14.634Z,5564
2017-06-08T06:37:14.313Z,5972
2017-06-08T06:38:14.611Z,6592
2017-06-08T06:39:14.913Z,7100
2017-06-08T06:40:14.903Z,6892
2017-06-08T06:41:14.576Z,6472
2017-06-08T06:42:15.203Z,5520
2017-06-08T06:43:14.560Z,4532
2017-06-08T06:44:14.580Z,3852
2017-06-08T06:45:15.162Z,3588
2017-06-08T06:46:14.838Z,3520
2017-06-08T06:47:14.826Z,3400
2017-06-08T06:48:15.130Z,3328
2017-06-08T06:49:14.803Z,3512
2017-06-08T06:50:14.484Z,3800
2017-06-08T06:51:14.151Z,3912
2017-06-08T06:52:14.453Z,4340
2017-06-08T06:53:14.748Z,5472
2017-06-08T06:54:15.061Z,6756
2017-06-08T06:55:15.049Z,7532
2017-06-08T06:56:14.736Z,7696
2017-06-08T06:57:14.731Z,7192
2017-06-08T06:58:14.702Z,6984
2017-06-08T06:59:14.700Z,6936
2017-06-08T07:00:14.681Z,6328
2017-06-08T07:01:15.183Z,5668
2017-06-08T07:02:14.857Z,5844
2017-06-08T07:03:14.991Z,6364
2017-06-08T07:04:14.630Z,7188
2017-06-08T07:05:14.309Z,8268
2017-06-08T07:06:14.608Z,8224
2017-06-08T07:07:14.287Z,9136
2017-06-08T07:08:14.272Z,10936
2017-06-08T07:09:15.020Z,10400
2017-06-08T07:10:14.567Z,10144
2017-06-08T07:11:14.237Z,10580
2017-06-08T07:12:14.277Z,11000
2017-06-08T07:13:14.542Z,11284
2017-06-08T07:14:14.573Z,11040
2017-06-08T07:15:14.514Z,10116
2017-06-08T07:16:14.844Z,9624
2017-06-08T07:17:14.175Z,9572
2017-06-08T07:18:14.792Z,9500
2017-06-08T07:19:14.468Z,9080
2017-06-08T07:20:14.458Z,8544
2017-06-08T07:21:14.767Z,8044
2017-06-08T07:22:14.443Z,7872
2017-06-08T07:23:14.434Z,7804
2017-06-08T07:24:14.137Z,7552
2017-06-08T07:25:14.101Z,6888
2017-06-08T07:26:14.711Z,6408
2017-06-08T07:27:14.384Z,6300
2017-06-08T07:28:14.070Z,6428
2017-06-08T07:29:14.371Z,6692
2017-06-08T07:30:14.409Z,6920
2017-06-08T07:31:14.401Z,6888
2017-06-08T07:32:14.351Z,6576
2017-06-08T07:33:14.329Z,6344
2017-06-08T07:34:14.630Z,6420
2017-06-08T07:35:14.621Z,6792
2017-06-08T07:36:13.674Z,7316
2017-06-08T07:37:14.285Z,7528
2017-06-08T07:38:14.274Z,7792
2017-06-08T07:39:13.954Z,8072
2017-06-08T07:40:13.945Z,8276
2017-06-08T07:41:14.571Z,8552
2017-06-08T07:42:14.294Z,8740
2017-06-08T07:43:14.552Z,9128
2017-06-08T07:44:14.216Z,9404
2017-06-08T07:45:13.899Z,9196
2017-06-08T07:46:13.896Z,8732
2017-06-08T07:47:14.506Z,8464
2017-06-08T07:48:13.861Z,7980
2017-06-08T07:49:13.856Z,7340
2017-06-08T07:50:14.162Z,6676
2017-06-08T07:51:13.884Z,6172
2017-06-08T07:52:14.445Z,6128
2017-06-08T07:53:14.126Z,6532
2017-06-08T07:54:14.428Z,7344
2017-06-08T07:55:14.437Z,8328
2017-06-08T07:56:13.469Z,9184
2017-06-08T07:57:14.098Z,10352
2017-06-08T07:58:14.077Z,11360
2017-06-08T07:59:14.066Z,12556
2017-06-08T08:00:13.751Z,13884
2017-06-08T08:01:14.052Z,13408
2017-06-08T08:02:13.423Z,16320
2017-06-08T08:03:13.409Z,11452
2017-06-08T08:04:14.032Z,10900
2017-06-08T08:05:14.011Z,11036
2017-06-08T08:06:14.309Z,10396
2017-06-08T08:07:13.987Z,9156
2017-06-08T08:08:13.982Z,8468
2017-06-08T08:09:13.997Z,8008
2017-06-08T08:10:14.281Z,7376
2017-06-08T08:11:13.959Z,6820
2017-06-08T08:12:14.279Z,7068
2017-06-08T08:13:13.647Z,8072
2017-06-08T08:14:13.646Z,8888
2017-06-08T08:15:14.242Z,9380
2017-06-08T08:16:13.907Z,10232
2017-06-08T08:17:13.911Z,11668
2017-06-08T08:18:14.218Z,11964
2017-06-08T08:19:13.883Z,11260
2017-06-08T08:20:14.185Z,11268
2017-06-08T08:21:13.548Z,11696
2017-06-08T08:22:13.539Z,11844
2017-06-08T08:23:13.867Z,11736
2017-06-08T08:24:13.516Z,12188
2017-06-08T08:25:14.140Z,10544
2017-06-08T08:26:13.819Z,9708
2017-06-08T08:27:13.490Z,9928
2017-06-08T08:28:13.796Z,10388
2017-06-08T08:29:14.121Z,10892
2017-06-08T08:30:14.088Z,11524
2017-06-08T08:31:14.083Z,11776
2017-06-08T08:32:13.787Z,12428
2017-06-08T08:33:13.767Z,13572
2017-06-08T08:34:13.750Z,19264
2017-06-08T08:35:13.742Z,15364
2017-06-08T08:36:13.730Z,18592
2017-06-08T08:37:13.737Z,15788
2017-06-08T08:38:13.719Z,12680
2017-06-08T08:39:14.033Z,12076
2017-06-08T08:40:13.700Z,11560
2017-06-08T08:41:13.387Z,12312
2017-06-08T08:42:13.367Z,13576
2017-06-08T08:43:13.701Z,14704
2017-06-08T08:44:13.995Z,14912
2017-06-08T08:45:13.342Z,15660
2017-06-08T08:46:13.979Z,13528
2017-06-08T08:47:13.662Z,11796
2017-06-08T08:48:13.646Z,11260
2017-06-08T08:49:13.314Z,11224
2017-06-08T08:50:13.308Z,12500
2017-06-08T08:51:13.650Z,16768
2017-06-08T08:52:13.918Z,21696
2017-06-08T08:53:13.595Z,22240
2017-06-08T08:54:13.273Z,20448
2017-06-08T08:55:13.584Z,21024
2017-06-08T08:56:13.895Z,29056
2017-06-08T08:57:13.258Z,26944
2017-06-08T08:58:13.867Z,26144
2017-06-08T08:59:13.238Z,21984
2017-06-08T09:00:13.227Z,20224
2017-06-08T09:01:12.904Z,20768
2017-06-08T09:02:13.729Z,19136
2017-06-08T09:03:13.208Z,17856
2017-06-08T09:04:13.515Z,18688
2017-06-08T09:05:13.197Z,18016
2017-06-08T09:06:13.819Z,17280
2017-06-08T09:07:13.511Z,17504
2017-06-08T09:08:13.494Z,16028
2017-06-08T09:09:13.173Z,14500
2017-06-08T09:10:13.482Z,14752
2017-06-08T09:11:13.466Z,16076
2017-06-08T09:12:13.151Z,17760
2017-06-08T09:13:13.166Z,31776
2017-06-08T09:14:13.134Z,17536
2017-06-08T09:15:13.443Z,33312
2017-06-08T09:16:13.446Z,29760
2017-06-08T09:17:13.117Z,34720
2017-06-08T09:18:13.739Z,38688
2017-06-08T09:19:13.138Z,44000
2017-06-08T09:20:13.098Z,46080
2017-06-08T09:21:13.091Z,49184
2017-06-08T09:22:13.406Z,47680
2017-06-08T09:23:13.426Z,48672
2017-06-08T09:24:13.071Z,44928
2017-06-08T09:25:13.700Z,49888
2017-06-08T09:26:13.414Z,48096
2017-06-08T09:27:13.059Z,32928
2017-06-08T09:28:13.368Z,38400
2017-06-08T09:29:13.360Z,27872
2017-06-08T09:30:13.410Z,24352
2017-06-08T09:31:13.040Z,37888
2017-06-08T09:32:13.373Z,32256
2017-06-08T09:33:13.029Z,27552
2017-06-08T09:34:13.340Z,28640
2017-06-08T09:35:13.030Z,33536
2017-06-08T09:36:13.053Z,32864
2017-06-08T09:37:13.327Z,31840
2017-06-08T09:38:12.700Z,33248
2017-06-08T09:39:13.313Z,31648
2017-06-08T09:40:13.633Z,30432
2017-06-08T09:41:12.994Z,29664
2017-06-08T09:42:12.987Z,31264
2017-06-08T09:43:12.991Z,28192
2017-06-08T09:44:13.304Z,34944
2017-06-08T09:45:13.298Z,33888
2017-06-08T09:46:12.985Z,31328
2017-06-08T09:47:13.284Z,30848
2017-06-08T09:48:13.279Z,26368
2017-06-08T09:49:13.277Z,25120
2017-06-08T09:50:13.584Z,23008
2017-06-08T09:51:13.018Z,19616
2017-06-08T09:52:13.291Z,19264
2017-06-08T09:53:13.262Z,18560
2017-06-08T09:54:12.935Z,19168
2017-06-08T09:55:12.935Z,19712
2017-06-08T09:56:13.247Z,27264
2017-06-08T09:57:13.550Z,28608
2017-06-08T09:58:13.567Z,28992
2017-06-08T09:59:13.589Z,26592
2017-06-08T10:00:12.602Z,22912
2017-06-08T10:01:12.925Z,20032
2017-06-08T10:02:13.213Z,22080
2017-06-08T10:03:13.211Z,22656
2017-06-08T10:04:13.206Z,26368
2017-06-08T10:05:12.888Z,22464
2017-06-08T10:06:13.199Z,26496
2017-06-08T10:07:13.508Z,27392
2017-06-08T10:08:13.185Z,22496
2017-06-08T10:09:12.916Z,24416
2017-06-08T10:10:12.862Z,22048
2017-06-08T10:11:13.170Z,20832
2017-06-08T10:12:13.485Z,18112
2017-06-08T10:13:13.483Z,15656
2017-06-08T10:14:13.156Z,14284
2017-06-08T10:15:12.529Z,14036
2017-06-08T10:16:12.515Z,13904
2017-06-08T10:17:12.827Z,12712
2017-06-08T10:18:13.451Z,12592
2017-06-08T10:19:12.820Z,12392
2017-06-08T10:20:13.446Z,12320
2017-06-08T10:21:12.812Z,11928
2017-06-08T10:22:13.442Z,12208
2017-06-08T10:23:12.800Z,12556
2017-06-08T10:24:13.421Z,12412
2017-06-08T10:25:12.478Z,12836
2017-06-08T10:26:13.412Z,13768
2017-06-08T10:27:13.091Z,14004
2017-06-08T10:28:12.774Z,13704
2017-06-08T10:29:13.079Z,14028
2017-06-08T10:30:12.755Z,13756
2017-06-08T10:31:13.396Z,13092
2017-06-08T10:32:12.438Z,12980
2017-06-08T10:33:13.061Z,13496
2017-06-08T10:34:13.057Z,14628
2017-06-08T10:35:13.045Z,16576
2017-06-08T10:36:13.105Z,18240
2017-06-08T10:37:13.049Z,15996
2017-06-08T10:38:13.345Z,16928
2017-06-08T10:39:13.349Z,18944
2017-06-08T10:40:13.071Z,26048
2017-06-08T10:41:13.358Z,30592
2017-06-08T10:42:13.035Z,26368
2017-06-08T10:43:12.685Z,30240
2017-06-08T10:44:12.676Z,31104
2017-06-08T10:45:12.989Z,30080
2017-06-08T10:46:12.982Z,23616
2017-06-08T10:47:12.982Z,25984
2017-06-08T10:48:12.966Z,24672
2017-06-08T10:49:13.278Z,24064
2017-06-08T10:50:12.958Z,21536
2017-06-08T10:51:12.639Z,21440
2017-06-08T10:52:12.633Z,27808
2017-06-08T10:53:13.039Z,31456
2017-06-08T10:54:12.622Z,39872
2017-06-08T10:55:12.933Z,42336
2017-06-08T10:56:12.926Z,38912
2017-06-08T10:57:12.920Z,24928
2017-06-08T10:58:13.230Z,23168
2017-06-08T10:59:13.227Z,43936
2017-06-08T11:00:12.598Z,24832
2017-06-08T11:01:12.952Z,28192
2017-06-08T11:02:13.440Z,36544
2017-06-08T11:03:12.899Z,35200
2017-06-08T11:04:12.887Z,46624
2017-06-08T11:05:13.232Z,60704
2017-06-08T11:06:12.881Z,36320
2017-06-08T11:07:12.875Z,29248
2017-06-08T11:08:12.557Z,37088
2017-06-08T11:09:12.866Z,52224
2017-06-08T11:10:13.175Z,27008
2017-06-08T11:11:12.857Z,35840
2017-06-08T11:12:13.169Z,27072
2017-06-08T11:13:12.535Z,33824
2017-06-08T11:14:12.531Z,50944
2017-06-08T11:15:12.857Z,46144
2017-06-08T11:16:12.889Z,41280
2017-06-08T11:17:12.836Z,36288
2017-06-08T11:18:12.835Z,32128
2017-06-08T11:19:13.138Z,23904
2017-06-08T11:20:12.827Z,30368
2017-06-08T11:21:12.822Z,32352
2017-06-08T11:22:13.137Z,32896
2017-06-08T11:23:12.814Z,31904
2017-06-08T11:24:12.537Z,32000
2017-06-08T11:25:12.178Z,21888
2017-06-08T11:26:12.805Z,29344
2017-06-08T11:27:12.492Z,22880
2017-06-08T11:28:12.485Z,27264
2017-06-08T11:29:12.481Z,26656
2017-06-08T11:30:12.479Z,20064
2017-06-08T11:31:12.784Z,18720
2017-06-08T11:32:12.155Z,24032
2017-06-08T11:33:12.848Z,17376
2017-06-08T11:34:12.830Z,18528
2017-06-08T11:35:12.778Z,20640
2017-06-08T11:36:12.456Z,27456
2017-06-08T11:37:13.083Z,37824
2017-06-08T11:38:12.450Z,38528
2017-06-08T11:39:12.447Z,37024
2017-06-08T11:40:12.753Z,32448
2017-06-08T11:41:12.127Z,22752
2017-06-08T11:42:12.740Z,17856
2017-06-08T11:43:13.058Z,16480
2017-06-08T11:44:12.737Z,17280
2017-06-08T11:45:12.727Z,22272
2017-06-08T11:46:12.731Z,20544
2017-06-08T11:47:12.725Z,24768
2017-06-08T11:48:12.716Z,21184
2017-06-08T11:49:12.399Z,21920
2017-06-08T11:50:13.026Z,44992
2017-06-08T11:51:13.022Z,68768
2017-06-08T11:52:12.388Z,94720
2017-06-08T11:53:13.019Z,93024
2017-06-08T11:54:12.385Z,80672
2017-06-08T11:55:12.060Z,65280
2017-06-08T11:56:12.689Z,59936
2017-06-08T11:57:12.413Z,64928
2017-06-08T11:58:12.996Z,28800
2017-06-08T11:59:12.366Z,26720
2017-06-08T12:00:12.993Z,22144
2017-06-08T12:01:13.011Z,16672
2017-06-08T12:02:12.670Z,13192
2017-06-08T12:03:12.704Z,11784
2017-06-08T12:04:12.978Z,12032
2017-06-08T12:05:12.031Z,11828
2017-06-08T12:06:12.975Z,12100
2017-06-08T12:07:12.346Z,12952
2017-06-08T12:08:12.343Z,18176
2017-06-08T12:09:12.651Z,20224
2017-06-08T12:10:12.641Z,35776
2017-06-08T12:11:12.672Z,18336
2017-06-08T12:12:12.953Z,13172
2017-06-08T12:13:12.418Z,11764
2017-06-08T12:14:12.635Z,11960
2017-06-08T12:15:12.939Z,12700
2017-06-08T12:16:12.940Z,13944
2017-06-08T12:17:12.624Z,15532
2017-06-08T12:18:12.615Z,30496
2017-06-08T12:19:12.927Z,19968
2017-06-08T12:20:12.645Z,18720
2017-06-08T12:21:12.291Z,21408
2017-06-08T12:22:11.981Z,19648
2017-06-08T12:23:12.914Z,19936
2017-06-08T12:24:12.592Z,20416
2017-06-08T12:25:12.583Z,22432
2017-06-08T12:26:12.260Z,23392
2017-06-08T12:27:12.580Z,31040
2017-06-08T12:28:12.652Z,35200
2017-06-08T12:29:12.893Z,27936
2017-06-08T12:30:12.562Z,25056
2017-06-08T12:31:12.611Z,23424
2017-06-08T12:32:12.241Z,25760
2017-06-08T12:33:12.231Z,25536
2017-06-08T12:34:12.859Z,22656
2017-06-08T12:35:12.545Z,24128
2017-06-08T12:36:12.549Z,28992
2017-06-08T12:37:12.568Z,32000
2017-06-08T12:38:12.216Z,32032
2017-06-08T12:39:12.841Z,41312
2017-06-08T12:40:12.523Z,51680
2017-06-08T12:41:12.833Z,51520
2017-06-08T12:42:12.563Z,54816
2017-06-08T12:43:12.517Z,56864
2017-06-08T12:44:12.508Z,55872
2017-06-08T12:45:12.499Z,55936
2017-06-08T12:46:12.502Z,58368
2017-06-08T12:47:12.180Z,30368
2017-06-08T12:48:12.497Z,27072
2017-06-08T12:49:12.816Z,42464
2017-06-08T12:50:11.865Z,24544
2017-06-08T12:51:12.180Z,37568
2017-06-08T12:52:12.483Z,19264
2017-06-08T12:53:12.481Z,24736
2017-06-08T12:54:12.169Z,28576
2017-06-08T12:55:12.173Z,47616
2017-06-08T12:56:12.529Z,48832
2017-06-08T12:57:12.215Z,36864
2017-06-08T12:58:12.784Z,36832
2017-06-08T12:59:12.788Z,36032
2017-06-08T13:00:12.481Z,35136
2017-06-08T13:01:12.474Z,72864
2017-06-08T13:02:12.399Z,56128
2017-06-08T13:03:12.467Z,42048
2017-06-08T13:04:12.457Z,34176
2017-06-08T13:05:12.149Z,41152
2017-06-08T13:06:12.153Z,29664
2017-06-08T13:07:12.141Z,27200
2017-06-08T13:08:12.141Z,30784
2017-06-08T13:09:12.452Z,35872
2017-06-08T13:10:12.454Z,47360
2017-06-08T13:11:12.452Z,38880
2017-06-08T13:12:12.130Z,35456
2017-06-08T13:13:12.447Z,43392
2017-06-08T13:14:12.446Z,40576
2017-06-08T13:15:12.129Z,39424
2017-06-08T13:16:12.439Z,55520
2017-06-08T13:17:12.445Z,59616
2017-06-08T13:18:12.748Z,70112
2017-06-08T13:19:12.437Z,69184
2017-06-08T13:20:12.769Z,66112
2017-06-08T13:21:11.807Z,73056
2017-06-08T13:22:12.440Z,60448
2017-06-08T13:23:12.449Z,57888
2017-06-08T13:24:12.430Z,53408
2017-06-08T13:25:12.743Z,56864
2017-06-08T13:26:12.116Z,52704
2017-06-08T13:27:12.442Z,50784
2017-06-08T13:28:12.432Z,54560
2017-06-08T13:29:12.744Z,57536